Time;durP1;ratioP1;P1;durP2;ratioP2;P2;SDS_P1;SDS_P2;PMS_P1;PMS_P2;Temp;Humidity;BMP_temperature;BMP_pressure;BME280_temperature;BME280_humidity;BME280_pressure;Samples;Min_cycle;Max_cycle;Signal;HPM_P1;HPM_P2
2022/11/14 00:00:45;;;;;;;25.48;16.75;;;7.90;75.10;;;;;;5040461;28;20084;-71
2022/11/14 00:03:12;;;;;;;24.88;17.60;;;7.90;75.10;;;;;;5042503;28;20417;-71
2022/11/14 00:05:40;;;;;;;27.98;19.35;;;7.90;75.20;;;;;;5031242;28;20033;-70
2022/11/14 00:08:06;;;;;;;28.95;19.75;;;7.90;75.30;;;;;;5044708;28;20079;-72
2022/11/14 00:10:32;;;;;;;27.67;19.40;;;7.80;75.60;;;;;;5033804;28;20061;-72
2022/11/14 00:12:57;;;;;;;26.65;18.63;;;7.70;76.00;;;;;;5032435;28;20476;-72
2022/11/14 00:15:23;;;;;;;28.52;18.63;;;7.70;76.00;;;;;;5035549;28;20037;-70
2022/11/14 00:17:48;;;;;;;27.48;18.60;;;7.70;76.20;;;;;;5032745;28;20108;-70
2022/11/14 00:20:14;;;;;;;29.05;19.98;;;7.60;76.50;;;;;;5044975;28;20040;-70
2022/11/14 00:22:39;;;;;;;28.45;19.50;;;7.60;76.60;;;;;;5039417;28;20556;-70
2022/11/14 00:25:06;;;;;;;26.85;19.35;;;7.60;76.70;;;;;;5048335;28;21112;-71
2022/11/14 00:27:31;;;;;;;27.58;18.65;;;7.60;76.90;;;;;;5041450;28;20032;-71
2022/11/14 00:29:57;;;;;;;27.20;18.95;;;7.50;76.90;;;;;;5034850;28;20036;-70
2022/11/14 00:32:22;;;;;;;27.67;19.10;;;7.50;76.90;;;;;;5043356;28;20013;-71
2022/11/14 00:34:48;;;;;;;30.60;20.13;;;7.50;77.00;;;;;;5047838;28;20026;-70
2022/11/14 00:37:14;;;;;;;29.17;19.15;;;7.50;77.40;;;;;;5035698;28;20021;-70
2022/11/14 00:39:39;;;;;;;29.38;19.40;;;7.40;77.40;;;;;;5046199;28;20037;-71
2022/11/14 00:42:05;;;;;;;27.50;18.55;;;7.50;77.40;;;;;;5036593;28;20022;-71
2022/11/14 00:44:31;;;;;;;27.25;18.35;;;7.40;77.30;;;;;;5038789;28;20021;-72
2022/11/14 00:46:57;;;;;;;29.17;19.17;;;7.40;77.30;;;;;;5034562;28;20021;-71
2022/11/14 00:49:23;;;;;;;30.15;20.08;;;7.40;77.40;;;;;;5044565;28;20450;-72
2022/11/14 00:51:48;;;;;;;29.83;19.55;;;7.40;77.70;;;;;;5041515;28;20472;-72
2022/11/14 00:54:14;;;;;;;27.05;19.10;;;7.40;77.50;;;;;;5038843;28;20033;-72
2022/11/14 00:56:39;;;;;;;31.27;21.27;;;7.40;77.60;;;;;;5032781;28;20045;-70
2022/11/14 00:59:05;;;;;;;32.25;20.42;;;7.30;77.80;;;;;;5030289;28;20033;-71
2022/11/14 01:01:30;;;;;;;30.95;21.42;;;7.30;78.00;;;;;;5030800;28;20033;-70
2022/11/14 01:03:56;;;;;;;29.98;19.90;;;7.30;78.40;;;;;;5035456;28;20084;-71
2022/11/14 01:06:21;;;;;;;31.92;21.40;;;7.20;78.50;;;;;;5041760;28;20132;-71
2022/11/14 01:08:49;;;;;;;32.03;21.67;;;7.20;78.40;;;;;;5036542;28;20035;-71
2022/11/14 01:11:18;;;;;;;31.13;20.65;;;7.20;78.60;;;;;;5046494;28;20102;-71
2022/11/14 01:13:44;;;;;;;36.15;23.73;;;7.20;78.80;;;;;;5041908;28;20056;-71
2022/11/14 01:16:10;;;;;;;31.75;20.95;;;7.10;79.10;;;;;;5034525;28;20076;-71
2022/11/14 01:18:37;;;;;;;30.20;20.55;;;7.10;79.30;;;;;;5042380;28;20064;-71
2022/11/14 01:21:11;;;;;;;29.17;20.08;;;7.10;79.10;;;;;;5043607;28;20098;-72
2022/11/14 01:23:37;;;;;;;33.33;21.33;;;7.10;79.10;;;;;;5037859;28;20021;-72
2022/11/14 01:26:08;;;;;;;38.28;23.52;;;7.10;79.10;;;;;;5031978;28;20052;-72
2022/11/14 01:28:34;;;;;;;33.60;21.53;;;7.00;79.10;;;;;;5044284;28;20168;-72
2022/11/14 01:31:23;;;;;;;31.75;20.88;;;7.00;79.20;;;;;;5045957;28;20100;-71
2022/11/14 01:33:50;;;;;;;30.75;20.65;;;7.00;79.40;;;;;;5039626;28;20022;-72
2022/11/14 01:36:17;;;;;;;33.05;21.70;;;6.90;79.50;;;;;;5030767;28;20037;-72
2022/11/14 01:38:42;;;;;;;31.05;20.40;;;6.90;79.50;;;;;;5046004;28;20037;-73
2022/11/14 01:41:11;;;;;;;32.92;22.08;;;6.90;79.50;;;;;;5042618;28;20033;-71
2022/11/14 01:43:38;;;;;;;32.95;21.58;;;6.90;79.60;;;;;;5057459;28;20102;-74
2022/11/14 01:46:20;;;;;;;33.20;22.35;;;6.80;79.90;;;;;;5049176;28;20033;-71
2022/11/14 01:48:58;;;;;;;33.50;21.05;;;6.80;80.00;;;;;;5033855;28;20026;-71
2022/11/14 01:51:28;;;;;;;33.67;22.00;;;6.80;80.20;;;;;;5036599;28;20427;-71
2022/11/14 01:53:57;;;;;;;31.30;21.00;;;6.70;80.30;;;;;;5044210;28;20028;-71
2022/11/14 01:56:36;;;;;;;33.38;22.10;;;6.70;80.50;;;;;;5035788;28;20416;-71
2022/11/14 01:59:08;;;;;;;34.10;21.80;;;6.70;80.50;;;;;;5036277;28;20040;-71
2022/11/14 02:01:40;;;;;;;31.50;20.50;;;6.70;80.50;;;;;;5038294;28;20036;-71
2022/11/14 02:04:06;;;;;;;37.70;23.27;;;6.70;81.20;;;;;;5047389;28;20032;-71
2022/11/14 02:06:33;;;;;;;35.85;22.80;;;6.60;80.50;;;;;;5042119;28;20047;-71
2022/11/14 02:09:04;;;;;;;31.80;21.02;;;6.60;80.70;;;;;;5042916;28;20032;-70
2022/11/14 02:11:35;;;;;;;32.72;19.60;;;6.60;80.70;;;;;;5033983;28;20026;-70
2022/11/14 02:14:00;;;;;;;33.72;21.98;;;6.70;80.60;;;;;;5050992;28;20029;-70
2022/11/14 02:16:27;;;;;;;37.67;23.77;;;6.60;80.60;;;;;;5042579;28;20028;-70
2022/11/14 02:18:53;;;;;;;36.92;22.98;;;6.60;81.00;;;;;;5048732;28;20048;-70
2022/11/14 02:21:19;;;;;;;35.88;22.27;;;6.60;81.00;;;;;;5047157;28;20486;-70
2022/11/14 02:23:45;;;;;;;35.85;22.02;;;6.50;81.10;;;;;;5050475;28;20136;-70
2022/11/14 02:26:10;;;;;;;38.28;22.95;;;6.50;81.20;;;;;;5049909;28;20036;-70
2022/11/14 02:28:36;;;;;;;33.78;21.65;;;6.50;81.10;;;;;;5042738;28;20044;-70
2022/11/14 02:31:02;;;;;;;37.40;23.90;;;6.50;81.10;;;;;;5033480;28;20105;-70
2022/11/14 02:33:27;;;;;;;37.55;23.55;;;6.50;81.20;;;;;;5035264;28;20036;-70
2022/11/14 02:35:53;;;;;;;33.47;20.77;;;6.50;81.40;;;;;;5034160;28;20025;-71
2022/11/14 02:38:18;;;;;;;36.88;22.20;;;6.40;81.40;;;;;;5037210;28;20672;-71
2022/11/14 02:40:44;;;;;;;37.38;21.65;;;6.40;81.40;;;;;;5041671;28;20076;-71
2022/11/14 02:43:10;;;;;;;34.45;20.92;;;6.40;81.40;;;;;;5037003;28;20421;-71
2022/11/14 02:45:35;;;;;;;35.28;21.15;;;6.50;81.20;;;;;;5032793;28;20510;-71
2022/11/14 02:48:01;;;;;;;35.20;21.08;;;6.40;81.10;;;;;;5039854;28;20490;-71
2022/11/14 02:50:27;;;;;;;41.78;24.63;;;6.40;81.10;;;;;;5052261;28;20534;-71
2022/11/14 02:52:52;;;;;;;38.33;23.10;;;6.40;81.20;;;;;;5042638;28;20119;-71
2022/11/14 02:55:19;;;;;;;37.80;23.30;;;6.40;81.40;;;;;;5049398;28;20525;-71
2022/11/14 02:57:45;;;;;;;30.73;20.23;;;6.40;81.40;;;;;;5045022;28;20131;-70
2022/11/14 03:00:11;;;;;;;32.55;20.27;;;6.30;81.30;;;;;;5042308;28;20107;-70
2022/11/14 03:02:36;;;;;;;33.63;20.88;;;6.30;81.40;;;;;;5040184;28;20077;-70
2022/11/14 03:05:02;;;;;;;38.03;23.02;;;6.30;81.30;;;;;;5051120;28;20060;-71
2022/11/14 03:07:28;;;;;;;34.78;21.27;;;6.30;81.30;;;;;;5036061;28;20134;-71
2022/11/14 03:09:53;;;;;;;31.60;20.33;;;6.30;81.50;;;;;;5036073;28;20123;-71
2022/11/14 03:12:19;;;;;;;34.00;21.20;;;6.30;81.60;;;;;;5036048;28;20100;-71
2022/11/14 03:14:45;;;;;;;32.53;20.08;;;6.30;81.50;;;;;;5035035;28;20021;-71
2022/11/14 03:17:11;;;;;;;37.17;23.17;;;6.30;81.50;;;;;;5033160;28;20542;-71
2022/11/14 03:19:36;;;;;;;32.65;19.55;;;6.20;81.50;;;;;;5047460;28;20036;-71
2022/11/14 03:22:02;;;;;;;34.28;22.13;;;6.20;81.50;;;;;;5043006;28;20112;-72
2022/11/14 03:24:27;;;;;;;36.00;21.52;;;6.20;81.70;;;;;;5041238;28;20059;-71
2022/11/14 03:26:53;;;;;;;33.42;21.05;;;6.20;81.70;;;;;;5034258;28;20068;-71
2022/11/14 03:29:18;;;;;;;34.08;21.35;;;6.20;81.90;;;;;;5040299;28;20391;-71
2022/11/14 03:31:44;;;;;;;34.35;20.80;;;6.20;81.90;;;;;;5047375;28;20383;-71
2022/11/14 03:34:10;;;;;;;35.05;21.30;;;6.10;81.80;;;;;;5042319;28;20025;-72
2022/11/14 03:36:36;;;;;;;36.55;22.35;;;6.10;81.90;;;;;;5034530;28;20022;-72
2022/11/14 03:39:03;;;;;;;34.90;21.52;;;6.10;82.00;;;;;;5033534;28;20033;-71
2022/11/14 03:41:28;;;;;;;34.25;20.45;;;6.10;82.10;;;;;;5031218;28;20033;-72
2022/11/14 03:43:54;;;;;;;30.58;19.45;;;6.10;82.10;;;;;;5041175;28;20086;-72
2022/11/14 03:46:20;;;;;;;36.70;22.70;;;6.10;82.00;;;;;;5034540;28;20790;-73
2022/11/14 03:48:45;;;;;;;33.15;20.23;;;6.10;82.00;;;;;;5031242;28;20480;-72
2022/11/14 03:51:11;;;;;;;35.13;21.23;;;6.10;82.00;;;;;;5034849;28;20101;-71
2022/11/14 03:53:36;;;;;;;33.72;21.35;;;6.00;82.00;;;;;;5034829;28;20048;-71
2022/11/14 03:56:02;;;;;;;33.67;19.67;;;6.00;82.00;;;;;;5050517;28;20070;-70
2022/11/14 03:58:28;;;;;;;35.35;21.25;;;6.00;81.90;;;;;;5045476;28;20480;-70
2022/11/14 04:00:56;;;;;;;31.17;20.13;;;6.00;82.00;;;;;;5031486;28;20033;-69
2022/11/14 04:03:23;;;;;;;33.38;20.52;;;6.00;81.90;;;;;;5030600;28;20089;-70
2022/11/14 04:05:49;;;;;;;31.40;18.85;;;6.00;81.70;;;;;;5040795;28;20025;-72
2022/11/14 04:08:15;;;;;;;30.15;18.88;;;6.10;81.70;;;;;;5039199;28;20022;-70
2022/11/14 04:10:40;;;;;;;30.65;19.17;;;6.10;81.60;;;;;;5046595;28;20032;-71
2022/11/14 04:13:06;;;;;;;32.15;19.73;;;6.00;81.50;;;;;;5042743;28;20029;-70
2022/11/14 04:15:32;;;;;;;28.95;17.63;;;6.00;81.50;;;;;;5037411;28;20025;-70
2022/11/14 04:17:58;;;;;;;30.75;18.33;;;6.00;81.40;;;;;;5032096;28;20502;-71
2022/11/14 04:20:23;;;;;;;33.03;19.88;;;6.10;81.40;;;;;;5035369;28;20029;-72
2022/11/14 04:22:49;;;;;;;29.83;18.15;;;6.00;81.30;;;;;;5037132;28;20030;-71
2022/11/14 04:25:15;;;;;;;26.35;16.92;;;6.10;81.30;;;;;;5037080;28;20035;-69
2022/11/14 04:27:40;;;;;;;30.25;18.42;;;6.10;81.20;;;;;;5033531;28;20028;-70
2022/11/14 04:30:07;;;;;;;35.63;21.23;;;6.10;80.90;;;;;;5039993;28;20013;-70
2022/11/14 04:32:32;;;;;;;33.50;20.02;;;6.10;80.90;;;;;;5032864;28;20040;-69
2022/11/14 04:34:58;;;;;;;30.55;18.60;;;6.00;81.00;;;;;;5038489;28;20097;-69
2022/11/14 04:37:24;;;;;;;30.42;18.70;;;6.00;81.10;;;;;;5038266;28;20676;-69
2022/11/14 04:39:49;;;;;;;30.25;18.65;;;6.00;81.10;;;;;;5041076;28;20049;-69
2022/11/14 04:42:15;;;;;;;31.33;19.13;;;6.00;81.10;;;;;;5040718;28;20025;-69
2022/11/14 04:44:40;;;;;;;31.35;19.17;;;6.00;81.10;;;;;;5045023;28;20421;-70
2022/11/14 04:47:06;;;;;;;31.75;19.75;;;6.00;81.10;;;;;;5035913;28;20033;-70
2022/11/14 04:49:31;;;;;;;34.50;20.33;;;5.90;81.10;;;;;;5045814;28;20523;-69
2022/11/14 04:51:57;;;;;;;36.72;21.60;;;5.80;81.30;;;;;;5038123;28;20108;-71
2022/11/14 04:54:23;;;;;;;29.83;19.17;;;5.80;81.50;;;;;;5038543;28;20177;-71
2022/11/14 04:56:48;;;;;;;32.25;19.45;;;5.80;81.70;;;;;;5033976;28;20053;-70
2022/11/14 04:59:14;;;;;;;29.50;17.70;;;5.80;81.70;;;;;;5043279;28;20036;-70
2022/11/14 05:01:39;;;;;;;31.45;18.52;;;5.80;81.50;;;;;;5044857;28;20046;-70
2022/11/14 05:04:05;;;;;;;30.13;17.98;;;5.80;81.40;;;;;;5037260;28;20024;-71
2022/11/14 05:06:31;;;;;;;28.50;17.13;;;5.90;81.30;;;;;;5043281;28;20041;-72
2022/11/14 05:08:56;;;;;;;31.05;18.27;;;5.90;81.10;;;;;;5048324;28;20033;-71
2022/11/14 05:11:22;;;;;;;31.08;18.60;;;5.90;81.00;;;;;;5046803;28;20017;-72
2022/11/14 05:13:47;;;;;;;29.95;17.63;;;5.90;81.00;;;;;;5040783;28;20025;-71
2022/11/14 05:16:13;;;;;;;30.90;18.52;;;5.80;80.90;;;;;;5038693;28;20484;-72
2022/11/14 05:18:38;;;;;;;31.77;19.95;;;5.90;80.90;;;;;;5041358;28;20107;-70
2022/11/14 05:21:04;;;;;;;31.85;18.50;;;5.80;81.00;;;;;;5045316;28;20072;-71
2022/11/14 05:23:30;;;;;;;29.27;18.27;;;5.80;81.10;;;;;;5042820;28;20033;-71
2022/11/14 05:26:11;;;;;;;32.28;19.30;;;5.80;81.00;;;;;;5047271;28;20535;-72
2022/11/14 05:28:36;;;;;;;31.88;19.98;;;5.80;81.00;;;;;;5043337;28;20139;-71
2022/11/14 05:31:07;;;;;;;32.88;20.58;;;5.70;81.30;;;;;;5040998;28;20204;-72
2022/11/14 05:33:34;;;;;;;32.00;20.15;;;5.70;81.50;;;;;;5039589;28;20033;-70
2022/11/14 05:36:08;;;;;;;30.42;18.92;;;5.70;81.50;;;;;;5032996;28;20070;-71
2022/11/14 05:38:34;;;;;;;28.48;16.58;;;5.70;81.50;;;;;;5041848;28;20125;-69
2022/11/14 05:41:15;;;;;;;27.05;16.83;;;5.70;81.50;;;;;;5045184;28;20166;-70
2022/11/14 05:43:40;;;;;;;29.88;18.17;;;5.70;81.30;;;;;;5035749;28;20387;-69
2022/11/14 05:46:10;;;;;;;30.05;18.38;;;5.60;81.60;;;;;;5033936;28;20029;-69
2022/11/14 05:48:37;;;;;;;28.05;17.05;;;5.60;81.60;;;;;;5035254;28;20503;-70
2022/11/14 05:51:04;;;;;;;31.23;19.23;;;5.70;81.50;;;;;;5039945;28;20163;-69
2022/11/14 05:53:32;;;;;;;29.80;18.42;;;5.60;81.40;;;;;;5035861;28;20432;-71
2022/11/14 05:56:03;;;;;;;31.88;19.70;;;5.60;81.50;;;;;;5046269;28;20028;-72
2022/11/14 05:58:29;;;;;;;30.00;17.85;;;5.50;81.70;;;;;;5034409;28;20499;-72
2022/11/14 06:01:13;;;;;;;34.42;19.23;;;5.50;81.80;;;;;;5036056;28;20040;-72
2022/11/14 06:03:41;;;;;;;29.63;18.23;;;5.50;82.00;;;;;;5032172;28;20037;-72
2022/11/14 06:06:08;;;;;;;28.88;18.10;;;5.40;82.00;;;;;;5029896;28;20036;-70
2022/11/14 06:08:34;;;;;;;31.45;18.92;;;5.40;82.00;;;;;;5035433;28;20021;-71
2022/11/14 06:11:08;;;;;;;30.23;18.25;;;5.40;82.00;;;;;;5044680;28;20483;-70
2022/11/14 06:13:35;;;;;;;32.03;19.15;;;5.40;82.00;;;;;;5033756;28;20123;-71
2022/11/14 06:16:05;;;;;;;32.65;19.58;;;5.40;82.00;;;;;;5044798;28;20124;-71
2022/11/14 06:18:31;;;;;;;31.20;19.80;;;5.40;82.20;;;;;;5040815;28;20438;-71
2022/11/14 06:21:11;;;;;;;33.50;19.77;;;5.40;82.40;;;;;;5046818;28;20104;-71
2022/11/14 06:23:36;;;;;;;32.38;19.42;;;5.30;82.50;;;;;;5035570;28;20029;-70
2022/11/14 06:26:09;;;;;;;32.38;18.90;;;5.30;82.60;;;;;;5044943;28;20031;-70
2022/11/14 06:28:35;;;;;;;31.05;18.08;;;5.30;82.70;;;;;;5042439;28;20017;-71
2022/11/14 06:31:03;;;;;;;29.60;17.52;;;5.30;82.70;;;;;;5045515;28;20538;-71
2022/11/14 06:33:33;;;;;;;31.55;17.92;;;5.30;82.60;;;;;;5044106;28;20025;-71
2022/11/14 06:36:00;;;;;;;28.60;17.20;;;5.30;82.50;;;;;;5048956;28;20055;-71
2022/11/14 06:38:26;;;;;;;31.13;19.00;;;5.30;82.40;;;;;;5032553;28;20096;-71
2022/11/14 06:41:00;;;;;;;28.90;17.85;;;5.30;82.50;;;;;;5033057;28;20113;-71
2022/11/14 06:43:25;;;;;;;33.22;20.48;;;5.30;82.60;;;;;;5031662;28;20026;-71
2022/11/14 06:45:53;;;;;;;31.38;19.52;;;5.30;82.60;;;;;;5032798;28;20094;-71
2022/11/14 06:48:19;;;;;;;27.73;17.27;;;5.30;82.80;;;;;;5031933;28;20017;-70
2022/11/14 06:50:53;;;;;;;33.38;20.00;;;5.20;82.60;;;;;;5031397;28;20104;-70
2022/11/14 06:53:19;;;;;;;29.95;18.00;;;5.20;82.50;;;;;;5030135;28;20013;-70
2022/11/14 06:56:02;;;;;;;31.52;18.25;;;5.20;82.60;;;;;;5031654;28;20040;-70
2022/11/14 06:58:30;;;;;;;30.45;18.45;;;5.20;82.60;;;;;;5031503;28;20036;-70
2022/11/14 07:01:01;;;;;;;29.10;18.27;;;5.20;82.60;;;;;;5031156;28;20029;-70
2022/11/14 07:03:26;;;;;;;30.27;17.77;;;5.20;82.70;;;;;;5031603;28;20025;-71
2022/11/14 07:05:52;;;;;;;27.50;17.08;;;5.20;82.70;;;;;;5036175;28;20035;-71
2022/11/14 07:08:17;;;;;;;29.00;17.88;;;5.20;82.70;;;;;;5051015;28;20157;-71
2022/11/14 07:10:43;;;;;;;27.80;17.50;;;5.20;82.60;;;;;;5050433;28;20082;-71
2022/11/14 07:13:10;;;;;;;28.23;17.35;;;5.20;82.60;;;;;;5044650;28;20036;-70
2022/11/14 07:15:36;;;;;;;28.02;18.25;;;5.20;82.80;;;;;;5045574;28;20025;-70
2022/11/14 07:18:01;;;;;;;28.92;18.00;;;5.20;82.70;;;;;;5044288;28;20037;-70
2022/11/14 07:20:27;;;;;;;32.30;19.40;;;5.20;82.80;;;;;;5047670;28;20095;-70
2022/11/14 07:22:52;;;;;;;28.02;17.30;;;5.20;82.80;;;;;;5044967;28;20040;-70
2022/11/14 07:25:19;;;;;;;26.50;16.42;;;5.20;82.80;;;;;;5049822;28;20130;-70
2022/11/14 07:27:45;;;;;;;27.15;17.05;;;5.20;82.70;;;;;;5050744;28;20017;-69
2022/11/14 07:30:11;;;;;;;28.05;17.67;;;5.30;82.60;;;;;;5045948;28;20043;-70
2022/11/14 07:32:36;;;;;;;30.52;17.73;;;5.30;82.40;;;;;;5048530;28;20440;-71
2022/11/14 07:35:02;;;;;;;30.30;18.13;;;5.40;82.40;;;;;;5039921;28;20018;-70
2022/11/14 07:37:28;;;;;;;27.67;16.98;;;5.30;82.30;;;;;;5046919;28;20040;-71
2022/11/14 07:39:53;;;;;;;28.33;17.60;;;5.40;82.30;;;;;;5038994;28;20430;-69
2022/11/14 07:42:19;;;;;;;30.27;17.98;;;5.40;82.30;;;;;;5041036;28;20446;-70
2022/11/14 07:44:44;;;;;;;28.45;17.85;;;5.30;82.10;;;;;;5050254;28;20428;-69
2022/11/14 07:47:10;;;;;;;27.50;18.00;;;5.40;82.20;;;;;;5050370;28;20033;-70
2022/11/14 07:49:36;;;;;;;25.52;16.77;;;5.40;82.10;;;;;;5040337;28;20091;-69
2022/11/14 07:52:01;;;;;;;28.08;17.23;;;5.40;82.10;;;;;;5041901;28;20025;-69
2022/11/14 07:54:27;;;;;;;28.63;18.45;;;5.40;82.00;;;;;;5045521;28;20063;-70
2022/11/14 07:56:52;;;;;;;26.00;16.00;;;5.50;82.00;;;;;;5047526;28;20032;-70
2022/11/14 07:59:18;;;;;;;24.90;16.58;;;5.50;81.80;;;;;;5042700;28;20036;-70
2022/11/14 08:01:44;;;;;;;27.00;17.38;;;5.60;81.80;;;;;;5031407;28;20040;-69
2022/11/14 08:04:09;;;;;;;22.95;14.38;;;5.60;81.70;;;;;;5042873;28;20025;-70
2022/11/14 08:06:35;;;;;;;25.42;16.17;;;5.70;81.60;;;;;;5042210;28;20141;-70
2022/11/14 08:09:00;;;;;;;26.02;16.60;;;5.70;81.50;;;;;;5041422;28;20025;-70
2022/11/14 08:14:10;;;;;;;24.27;15.32;;;5.80;81.30;;;;;;5045076;28;20048;-70
2022/11/14 08:16:36;;;;;;;25.70;16.20;;;5.80;81.10;;;;;;5041373;28;20020;-70
2022/11/14 08:19:01;;;;;;;27.25;15.55;;;5.90;81.10;;;;;;5045876;28;20029;-70
2022/11/14 08:21:27;;;;;;;25.60;16.33;;;5.90;80.90;;;;;;5046348;28;20114;-69
2022/11/14 08:23:52;;;;;;;39.83;17.35;;;5.90;80.80;;;;;;5049170;28;20067;-70
2022/11/14 08:26:18;;;;;;;29.60;18.67;;;5.90;80.80;;;;;;5037743;28;20053;-70
2022/11/14 08:28:43;;;;;;;30.73;17.98;;;6.00;80.80;;;;;;5042702;28;20036;-71
2022/11/14 08:31:09;;;;;;;29.15;18.13;;;6.00;80.70;;;;;;5045388;28;20029;-70
2022/11/14 08:33:35;;;;;;;25.50;16.98;;;6.00;80.80;;;;;;5042665;28;20039;-71
2022/11/14 08:36:02;;;;;;;26.08;16.00;;;6.00;80.70;;;;;;5046643;28;20021;-71
2022/11/14 08:38:29;;;;;;;25.85;16.63;;;6.10;80.70;;;;;;5038190;28;20100;-71
2022/11/14 08:40:57;;;;;;;24.77;15.75;;;6.10;80.50;;;;;;5049115;28;20475;-70
2022/11/14 08:43:23;;;;;;;25.30;15.80;;;6.20;80.50;;;;;;5043706;28;20086;-70
2022/11/14 08:45:49;;;;;;;24.98;16.40;;;6.30;80.30;;;;;;5042368;28;20034;-71
2022/11/14 08:48:14;;;;;;;25.55;16.08;;;6.30;80.10;;;;;;5038466;28;20042;-71
2022/11/14 08:50:40;;;;;;;26.95;16.60;;;6.30;80.10;;;;;;5040471;28;20016;-70
2022/11/14 08:53:05;;;;;;;22.10;13.10;;;6.40;80.00;;;;;;5043602;28;20097;-70
2022/11/14 08:55:31;;;;;;;25.48;16.48;;;6.50;79.80;;;;;;5035183;28;20061;-70
2022/11/14 08:57:57;;;;;;;22.85;14.45;;;6.50;79.60;;;;;;5040322;28;20047;-71
2022/11/14 09:00:22;;;;;;;24.45;15.95;;;6.60;79.60;;;;;;5039571;28;20044;-71
2022/11/14 09:02:48;;;;;;;25.45;16.65;;;6.70;79.50;;;;;;5032447;28;20028;-71
2022/11/14 09:05:14;;;;;;;24.60;15.95;;;6.70;79.20;;;;;;5038795;28;20025;-70
2022/11/14 09:07:39;;;;;;;24.10;16.38;;;6.70;79.10;;;;;;5036044;28;20025;-71
2022/11/14 09:10:05;;;;;;;23.45;15.55;;;6.80;79.00;;;;;;5038838;28;20021;-71
2022/11/14 09:12:31;;;;;;;23.23;15.32;;;6.80;79.00;;;;;;5039857;28;20024;-70
2022/11/14 09:14:57;;;;;;;25.13;15.88;;;6.90;78.70;;;;;;5041422;28;20109;-71
2022/11/14 09:17:22;;;;;;;24.60;15.60;;;6.90;78.60;;;;;;5043702;28;20566;-70
2022/11/14 09:19:48;;;;;;;21.80;14.73;;;6.90;78.50;;;;;;5044579;28;20059;-69
2022/11/14 09:22:13;;;;;;;21.85;13.75;;;7.00;78.50;;;;;;5044541;28;20074;-69
2022/11/14 09:24:39;;;;;;;20.80;13.88;;;7.10;78.30;;;;;;5047507;28;20025;-71
2022/11/14 09:27:04;;;;;;;20.35;13.55;;;7.10;78.10;;;;;;5041316;28;20040;-70
2022/11/14 09:29:30;;;;;;;21.60;14.30;;;7.20;78.00;;;;;;5035570;28;20021;-70
2022/11/14 09:31:56;;;;;;;21.90;13.95;;;7.30;77.90;;;;;;5037390;28;20460;-70
2022/11/14 09:34:21;;;;;;;21.13;13.90;;;7.40;77.70;;;;;;5035632;28;20492;-70
2022/11/14 09:36:47;;;;;;;20.02;13.63;;;7.50;77.50;;;;;;5043055;28;20032;-70
2022/11/14 09:39:12;;;;;;;22.45;14.07;;;7.60;77.30;;;;;;5039650;28;20025;-71
2022/11/14 09:42:02;;;;;;;21.92;14.20;;;7.60;77.10;;;;;;5038632;28;20032;-71
2022/11/14 09:44:48;;;;;;;19.65;13.07;;;7.70;77.10;;;;;;5032693;28;20025;-70
2022/11/14 09:47:20;;;;;;;21.23;13.80;;;7.80;76.80;;;;;;5037008;28;20041;-71
2022/11/14 09:49:47;;;;;;;21.98;14.70;;;7.80;76.70;;;;;;5038168;28;20138;-71
2022/11/14 09:52:45;;;;;;;20.83;13.95;;;7.90;76.60;;;;;;5037220;28;20498;-71
2022/11/14 09:55:17;;;;;;;22.33;14.40;;;7.90;76.40;;;;;;5037339;28;20056;-71
2022/11/14 09:57:43;;;;;;;24.75;15.77;;;7.90;76.30;;;;;;5041532;28;20028;-71
2022/11/14 10:00:18;;;;;;;24.70;16.05;;;7.90;76.10;;;;;;5040997;28;20025;-72
2022/11/14 10:03:04;;;;;;;22.75;15.32;;;7.90;76.30;;;;;;5042482;28;20047;-71
2022/11/14 10:05:47;;;;;;;20.25;14.43;;;7.90;76.30;;;;;;5030564;28;20067;-72
2022/11/14 10:08:34;;;;;;;23.13;15.07;;;8.00;76.40;;;;;;5053220;28;20075;-72
2022/11/14 10:11:15;;;;;;;25.40;17.55;;;8.00;76.30;;;;;;5048426;28;20105;-72
2022/11/14 10:13:41;;;;;;;25.88;15.50;;;8.00;76.30;;;;;;5053233;28;20379;-72
2022/11/14 10:16:40;;;;;;;21.88;15.63;;;8.00;76.40;;;;;;5049334;28;20032;-72
2022/11/14 10:19:26;;;;;;;23.35;15.48;;;8.10;76.50;;;;;;5048561;28;20055;-72
2022/11/14 10:21:55;;;;;;;21.75;14.52;;;8.10;76.60;;;;;;5051600;28;20437;-72
2022/11/14 10:24:50;;;;;;;24.80;16.58;;;8.20;76.40;;;;;;5048444;28;20709;-72
2022/11/14 10:27:26;;;;;;;24.92;17.02;;;8.20;76.50;;;;;;5044328;28;20033;-71
2022/11/14 10:29:57;;;;;;;21.73;14.48;;;8.20;76.60;;;;;;5047373;28;20431;-72
2022/11/14 10:32:49;;;;;;;23.73;15.98;;;8.30;76.50;;;;;;5049713;28;20429;-71
2022/11/14 10:35:21;;;;;;;25.52;17.00;;;8.30;76.50;;;;;;5045395;28;20032;-72
2022/11/14 10:38:23;;;;;;;20.52;14.32;;;8.40;76.60;;;;;;5041877;28;20037;-71
2022/11/14 10:41:00;;;;;;;23.08;15.32;;;8.50;76.50;;;;;;5050615;28;20051;-72
2022/11/14 10:43:40;;;;;;;23.40;15.32;;;8.60;76.40;;;;;;5046747;28;20055;-72
2022/11/14 10:46:32;;;;;;;21.92;15.05;;;8.60;76.30;;;;;;5044515;28;20034;-71
2022/11/14 10:48:58;;;;;;;24.40;15.77;;;8.70;76.40;;;;;;5039733;28;20017;-72
2022/11/14 10:51:46;;;;;;;23.38;15.93;;;8.80;76.20;;;;;;5040750;28;20025;-72
2022/11/14 10:54:27;;;;;;;20.55;14.60;;;8.90;75.90;;;;;;5043230;28;20021;-72
2022/11/14 10:56:53;;;;;;;23.88;16.92;;;9.00;75.90;;;;;;5042238;28;20436;-72
2022/11/14 10:59:20;;;;;;;21.67;15.45;;;9.10;75.70;;;;;;5041997;28;20025;-72
2022/11/14 11:01:52;;;;;;;24.63;16.50;;;9.20;75.50;;;;;;5042112;28;20032;-72
2022/11/14 11:04:19;;;;;;;21.10;14.32;;;9.20;75.20;;;;;;5046767;28;20457;-72
2022/11/14 11:06:45;;;;;;;21.35;15.32;;;9.20;75.20;;;;;;5043970;28;20107;-72
2022/11/14 11:12:03;;;;;;;21.77;15.35;;;9.20;75.00;;;;;;5042984;28;20507;-70
2022/11/14 11:14:30;;;;;;;25.70;17.23;;;9.30;75.00;;;;;;5040230;28;20467;-70
2022/11/14 11:17:15;;;;;;;23.30;15.07;;;9.30;74.90;;;;;;5043177;28;20113;-70
2022/11/14 11:19:41;;;;;;;23.52;16.50;;;9.40;74.80;;;;;;5039866;28;20397;-70
2022/11/14 11:22:28;;;;;;;22.05;15.57;;;9.30;74.60;;;;;;5043547;28;20187;-70
2022/11/14 11:24:54;;;;;;;24.42;16.95;;;9.30;74.80;;;;;;5036974;28;20029;-70
2022/11/14 11:27:26;;;;;;;24.50;16.50;;;9.40;75.00;;;;;;5039422;28;20047;-70
2022/11/14 11:30:03;;;;;;;24.45;15.95;;;9.40;74.90;;;;;;5040314;28;20083;-70
2022/11/14 11:32:29;;;;;;;25.13;15.07;;;9.40;74.90;;;;;;5040897;28;20025;-70
2022/11/14 11:35:00;;;;;;;24.60;17.80;;;9.40;75.00;;;;;;5045461;28;20036;-70
2022/11/14 11:37:34;;;;;;;21.58;15.30;;;9.30;75.80;;;;;;5050594;28;20030;-70
2022/11/14 11:40:05;;;;;;;23.90;16.00;;;9.40;75.30;;;;;;5037437;28;20442;-70
2022/11/14 11:42:41;;;;;;;29.77;20.73;;;9.40;75.30;;;;;;5034462;28;20044;-70
2022/11/14 11:45:16;;;;;;;26.85;18.35;;;9.40;75.30;;;;;;5036153;28;20522;-70
2022/11/14 11:47:49;;;;;;;28.20;20.00;;;9.50;75.40;;;;;;5038019;28;20067;-70
2022/11/14 11:50:19;;;;;;;30.23;22.52;;;9.40;75.30;;;;;;5041400;28;20029;-70
2022/11/14 11:53:16;;;;;;;26.17;19.02;;;9.40;75.40;;;;;;5036796;28;20024;-70
2022/11/14 11:55:49;;;;;;;32.72;20.98;;;9.50;75.50;;;;;;5040622;28;20545;-70
2022/11/14 11:58:19;;;;;;;28.30;19.25;;;9.40;75.60;;;;;;5039522;28;20047;-70
2022/11/14 12:00:45;;;;;;;29.55;21.25;;;9.40;75.70;;;;;;5037744;28;20426;-70
2022/11/14 12:03:13;;;;;;;29.42;20.63;;;9.30;75.90;;;;;;5041542;28;20036;-70
2022/11/14 12:06:00;;;;;;;32.47;21.67;;;9.30;76.00;;;;;;5041179;28;20037;-70
2022/11/14 12:08:54;;;;;;;32.72;22.70;;;9.30;76.20;;;;;;5041583;28;20416;-70
2022/11/14 12:11:22;;;;;;;30.40;21.67;;;9.20;76.20;;;;;;5033228;28;20021;-70
2022/11/14 12:14:08;;;;;;;29.80;20.88;;;9.20;76.50;;;;;;5035428;28;20029;-70
2022/11/14 12:17:01;;;;;;;29.35;21.48;;;9.20;76.40;;;;;;5045752;28;20503;-70
2022/11/14 12:19:41;;;;;;;29.77;22.13;;;9.20;76.50;;;;;;5041996;28;20051;-70
2022/11/14 12:22:21;;;;;;;32.53;23.75;;;9.20;76.60;;;;;;5049665;28;20500;-70
2022/11/14 12:25:15;;;;;;;31.80;22.33;;;9.20;76.80;;;;;;5043528;28;20048;-70
2022/11/14 12:28:00;;;;;;;31.13;20.48;;;9.20;76.70;;;;;;5043136;28;20017;-69
2022/11/14 12:30:27;;;;;;;29.08;20.67;;;9.30;76.60;;;;;;5043056;28;20492;-69
2022/11/14 12:33:11;;;;;;;35.90;23.00;;;9.30;76.50;;;;;;5042297;28;20024;-72
2022/11/14 12:35:53;;;;;;;27.90;20.92;;;9.30;76.40;;;;;;5039691;28;20111;-69
2022/11/14 12:38:21;;;;;;;27.83;19.33;;;9.30;76.50;;;;;;5043313;28;20202;-69
2022/11/14 12:40:58;;;;;;;27.40;18.05;;;9.30;76.50;;;;;;5040666;28;20025;-70
2022/11/14 12:43:30;;;;;;;30.23;21.52;;;9.30;76.50;;;;;;5038740;28;20439;-70
2022/11/14 12:45:56;;;;;;;28.92;21.38;;;9.40;76.50;;;;;;5046441;28;20061;-70
2022/11/14 12:48:25;;;;;;;29.13;19.88;;;9.30;76.40;;;;;;5042631;28;20022;-69
2022/11/14 12:50:52;;;;;;;29.23;19.63;;;9.30;76.50;;;;;;5037138;28;20028;-70